Airfield :
LOGIN :

Register | Disclaimer

   EN    FR    IT 

 










Legend :    VFR   Marginal VFR   IFR   Intensive IFR   Very Intensive IFR
Visi :
Ceiling :
>= 8 km
>= 3000ft
5 to 8 km
1000 to 3000 ft
1500m to 5 km
500 to 1000 ft
800 to 1500m
200 to 500 ft
< 800m
< 200 ft
Symbols :   Thunderstorms  Fog  Heavy snow  Heavy precipitations  Wind > 20 kt
SIGMETs :     Misc.  Thunderstorms  Icing  Turbulence  Mountain Waves  Volcanic Ashes







- Airport Elevation : 268 ft
- IATA code : BFS
- Download approach charts


EGAA - Belfast Aldergrove

CURRENT METAR :
  • 262120Z 14009KT 7000 FEW015 14/13 Q1018

EXPIRED METARs :
  • 262050Z 13008KT 7000 FEW015 13/12 Q1018
  • 262020Z 13009KT 9000 NSC 13/12 Q1018
  • 261950Z 13009KT CAVOK 14/12 Q1018
  • 261920Z 13010KT CAVOK 14/12 Q1018
  • 261850Z 13010KT CAVOK 14/12 Q1018

TAF TAF EGAA
Valid from the 26 at 18:00 until the 27 at 18:00 UTC


261701Z 2618/2718 14013KT 9999 FEW010 SCT020
PROB40
TEMPO 2620/2707 8000 BKN010
BECMG 2709/2712 13019G30KT
TEMPO 2712/2718 6000 RA BKN012
No reported NOTAMs for that airfield.



MET'MAP, your aeronautical weather chart ! - Copyright ORBIFLY December 2007 - Disclaimer

ORBIFLY MET'MAP TEAM :

Programming & Development : Alexandra Zaïnal
Concept & Development : Baudouin d'Aumeries
Co-Development & Prog : Marc-Olivier Méhu
Technical & hardware support : Manuel Goepfert

Contact : metmap@orbifly.com




SOURCES & CREDITS :

   NOAA